createdAt,value
2019-02-28T00:01:32.144Z,70.90
2019-02-28T00:04:03.513Z,70.90
2019-02-28T00:06:35.926Z,70.80
2019-02-28T00:09:10.427Z,70.80
2019-02-28T00:11:42.445Z,70.90
2019-02-28T00:14:12.941Z,70.90
2019-02-28T00:16:44.441Z,71.10
2019-02-28T00:19:15.197Z,71.10
2019-02-28T00:21:46.092Z,71.70
2019-02-28T00:24:16.564Z,71.80
2019-02-28T00:26:47.951Z,72.10
2019-02-28T00:29:18.522Z,72.10
2019-02-28T00:31:49.897Z,72.10
2019-02-28T00:34:21.166Z,72.00
2019-02-28T00:36:53.439Z,72.10
2019-02-28T00:39:24.328Z,72.10
2019-02-28T00:41:54.848Z,72.10
2019-02-28T00:44:28.043Z,72.20
2019-02-28T00:46:58.857Z,72.20
2019-02-28T00:49:29.348Z,72.20
2019-02-28T00:52:01.602Z,72.10
2019-02-28T00:54:32.278Z,72.10
2019-02-28T00:57:02.746Z,72.30
2019-02-28T00:59:33.411Z,72.30
2019-02-28T01:02:03.958Z,72.30
2019-02-28T01:04:34.472Z,72.40
2019-02-28T01:07:05.153Z,72.20
2019-02-28T01:09:35.693Z,72.30
2019-02-28T01:12:06.385Z,72.40
2019-02-28T01:14:37.120Z,72.60
2019-02-28T01:17:08.540Z,72.60
2019-02-28T01:19:41.341Z,72.50
2019-02-28T01:22:11.151Z,72.90
2019-02-28T01:24:41.584Z,72.80
2019-02-28T01:27:12.087Z,73.40
2019-02-28T01:29:42.601Z,73.40
2019-02-28T01:32:15.341Z,73.40
2019-02-28T01:34:45.278Z,73.60
2019-02-28T01:37:16.004Z,73.70
2019-02-28T01:39:46.506Z,73.60
2019-02-28T01:42:20.089Z,73.50
2019-02-28T01:44:49.594Z,73.40
2019-02-28T01:47:21.000Z,73.70
2019-02-28T01:49:52.281Z,73.90
2019-02-28T01:52:22.859Z,73.90
2019-02-28T01:54:53.380Z,73.90
2019-02-28T01:57:23.855Z,74.00
2019-02-28T01:59:54.617Z,73.90
2019-02-28T02:02:25.387Z,73.80
2019-02-28T02:04:56.023Z,74.10
2019-02-28T02:07:26.520Z,74.10
2019-02-28T02:09:57.219Z,74.00
2019-02-28T02:12:31.271Z,74.00
2019-02-28T02:14:59.943Z,74.20
2019-02-28T02:17:32.235Z,73.90
2019-02-28T02:20:02.849Z,73.80
2019-02-28T02:22:34.394Z,73.60
2019-02-28T02:25:05.073Z,73.80
2019-02-28T02:27:35.529Z,74.00
2019-02-28T02:30:15.271Z,74.30
2019-02-28T02:32:41.934Z,73.90
2019-02-28T02:35:12.379Z,74.10
2019-02-28T02:37:42.847Z,74.40
2019-02-28T02:40:13.559Z,74.70
2019-02-28T02:42:48.665Z,74.80
2019-02-28T02:45:16.689Z,75.20
2019-02-28T02:47:47.154Z,75.50
2019-02-28T02:50:17.616Z,75.70
2019-02-28T02:52:48.110Z,75.40
2019-02-28T02:55:18.564Z,75.50
2019-02-28T02:57:51.733Z,75.40
2019-02-28T03:00:21.449Z,75.70
2019-02-28T03:02:52.271Z,75.60
2019-02-28T03:05:22.718Z,75.60
2019-02-28T03:07:59.509Z,76.00
2019-02-28T03:10:25.460Z,76.20
2019-02-28T03:12:56.114Z,76.60
2019-02-28T03:15:27.324Z,77.00
2019-02-28T03:17:57.989Z,76.70
2019-02-28T03:20:28.449Z,76.60
2019-02-28T03:23:02.245Z,76.70
2019-02-28T03:25:31.097Z,77.10
2019-02-28T03:28:01.566Z,77.60
2019-02-28T03:30:33.414Z,77.30
2019-02-28T03:33:04.240Z,77.50
2019-02-28T03:35:43.176Z,77.60
2019-02-28T03:38:11.527Z,77.80
2019-02-28T03:40:40.289Z,77.90
2019-02-28T03:43:11.307Z,77.80
2019-02-28T03:45:41.788Z,78.10
2019-02-28T03:48:12.247Z,78.70
2019-02-28T03:50:42.715Z,78.80
2019-02-28T03:53:19.655Z,78.50
2019-02-28T03:55:45.350Z,78.50
2019-02-28T03:58:15.799Z,78.60
2019-02-28T04:00:46.497Z,78.50
2019-02-28T04:03:16.952Z,78.60
2019-02-28T04:05:47.735Z,78.60
2019-02-28T04:08:18.202Z,78.60
2019-02-28T04:10:48.752Z,78.60
2019-02-28T04:13:22.586Z,78.50
2019-02-28T04:16:07.578Z,78.90
2019-02-28T04:18:25.458Z,79.10
2019-02-28T04:20:55.965Z,79.20
2019-02-28T04:23:26.417Z,79.40
2019-02-28T04:26:01.451Z,79.50
2019-02-28T04:28:32.017Z,79.40
2019-02-28T04:31:02.500Z,79.50
2019-02-28T04:33:37.526Z,79.70
2019-02-28T04:36:06.712Z,79.60
2019-02-28T04:38:51.681Z,80.80
2019-02-28T04:41:32.484Z,79.90
2019-02-28T04:44:01.805Z,79.70
2019-02-28T04:46:32.652Z,79.90
2019-02-28T04:49:03.257Z,79.70
2019-02-28T04:51:33.717Z,79.70
2019-02-28T04:54:04.174Z,79.90
2019-02-28T04:56:36.840Z,80.00
2019-02-28T04:59:07.412Z,79.90
2019-02-28T05:01:37.860Z,80.00
2019-02-28T05:04:08.301Z,80.00
2019-02-28T05:06:38.768Z,80.20
2019-02-28T05:09:10.678Z,80.30
2019-02-28T05:11:41.676Z,80.40
2019-02-28T05:14:12.749Z,80.50
2019-02-28T05:16:46.937Z,80.70
2019-02-28T05:19:15.662Z,80.80
2019-02-28T05:21:46.505Z,81.40
2019-02-28T05:24:16.949Z,81.30
2019-02-28T05:26:48.375Z,81.40
2019-02-28T05:29:18.826Z,81.40
2019-02-28T05:31:49.264Z,81.70
2019-02-28T05:34:20.234Z,81.50
2019-02-28T05:36:53.190Z,81.20
2019-02-28T05:39:23.965Z,81.30
2019-02-28T05:41:54.436Z,81.40
2019-02-28T05:44:25.243Z,81.70
2019-02-28T05:46:58.172Z,82.30
2019-02-28T05:49:27.853Z,82.40
2019-02-28T05:51:59.073Z,82.50
2019-02-28T05:54:30.326Z,82.50
2019-02-28T05:57:00.791Z,82.30
2019-02-28T05:59:31.250Z,82.90
2019-02-28T06:02:01.712Z,82.20
2019-02-28T06:04:34.192Z,82.20
2019-02-28T06:07:04.625Z,82.80
2019-02-28T06:09:35.133Z,83.10
2019-02-28T06:12:06.584Z,82.70
2019-02-28T06:14:38.285Z,82.80
2019-02-28T06:17:08.843Z,82.90
2019-02-28T06:19:40.251Z,82.80
2019-02-28T06:22:11.451Z,82.90
2019-02-28T06:24:44.774Z,82.80
2019-02-28T06:27:14.314Z,82.60
2019-02-28T06:29:44.798Z,82.60
2019-02-28T06:32:15.276Z,82.60
2019-02-28T06:34:45.757Z,82.80
2019-02-28T06:37:16.210Z,82.80
2019-02-28T06:39:46.689Z,83.10
2019-02-28T06:42:17.140Z,83.20
2019-02-28T06:44:47.651Z,83.20
2019-02-28T06:47:18.097Z,83.00
2019-02-28T06:49:48.543Z,82.90
2019-02-28T06:52:19.013Z,83.20
2019-02-28T06:54:49.873Z,83.20
2019-02-28T06:57:20.340Z,83.10
2019-02-28T06:59:51.176Z,83.60
2019-02-28T07:02:21.626Z,83.30
2019-02-28T07:04:52.352Z,83.30
2019-02-28T07:07:22.837Z,83.00
2019-02-28T07:09:53.874Z,82.80
2019-02-28T07:12:29.371Z,82.60
2019-02-28T07:14:57.753Z,82.60
2019-02-28T07:17:28.197Z,82.50
2019-02-28T07:20:01.953Z,82.60
2019-02-28T07:22:31.394Z,82.30
2019-02-28T07:25:01.852Z,82.10
2019-02-28T07:27:32.386Z,82.10
2019-02-28T07:30:02.844Z,82.00
2019-02-28T07:32:34.395Z,81.80
2019-02-28T07:35:06.232Z,81.70
2019-02-28T07:37:36.674Z,81.90
2019-02-28T07:40:08.421Z,81.80
2019-02-28T07:42:40.736Z,81.70
2019-02-28T07:45:12.226Z,81.60
2019-02-28T07:47:43.817Z,82.00
2019-02-28T07:50:20.384Z,81.90
2019-02-28T07:52:53.143Z,82.00
2019-02-28T07:55:27.140Z,81.90
2019-02-28T07:57:57.835Z,81.60
2019-02-28T08:00:28.552Z,81.20
2019-02-28T08:02:59.323Z,80.90
2019-02-28T08:05:31.048Z,80.60
2019-02-28T08:08:01.728Z,80.50
2019-02-28T08:10:32.296Z,79.90
2019-02-28T08:13:04.009Z,79.70
2019-02-28T08:15:35.748Z,79.60
2019-02-28T08:18:06.314Z,79.70
2019-02-28T08:20:36.997Z,79.60
2019-02-28T08:23:07.594Z,79.10
2019-02-28T08:25:39.624Z,78.90
2019-02-28T08:28:12.062Z,78.20
2019-02-28T08:30:42.880Z,77.90
2019-02-28T08:33:17.409Z,78.60
2019-02-28T08:35:48.026Z,77.40
2019-02-28T08:38:18.495Z,77.00
2019-02-28T08:40:51.552Z,76.20
2019-02-28T08:43:27.225Z,75.50
2019-02-28T08:45:53.431Z,74.70
2019-02-28T08:48:24.871Z,73.80
2019-02-28T08:50:56.810Z,72.90
2019-02-28T08:53:27.232Z,71.70
2019-02-28T08:55:57.680Z,70.90
2019-02-28T08:58:28.196Z,70.40
2019-02-28T09:00:59.025Z,69.40
2019-02-28T09:03:29.495Z,69.10
2019-02-28T09:06:00.872Z,67.90
2019-02-28T09:08:32.137Z,67.40
2019-02-28T09:11:02.693Z,66.60
2019-02-28T09:13:33.124Z,66.00
2019-02-28T09:16:04.957Z,65.70
2019-02-28T09:18:36.110Z,65.20
2019-02-28T09:21:07.525Z,65.10
2019-02-28T09:23:38.493Z,63.10
2019-02-28T09:26:09.148Z,61.40
2019-02-28T09:28:39.614Z,60.20
2019-02-28T09:31:10.075Z,58.10
2019-02-28T09:33:40.573Z,56.60
2019-02-28T09:36:11.046Z,56.20
2019-02-28T09:38:42.292Z,55.20
2019-02-28T09:41:14.110Z,54.70
2019-02-28T09:43:44.627Z,53.80
2019-02-28T09:46:15.714Z,52.60
2019-02-28T09:48:48.114Z,51.80
2019-02-28T09:51:18.582Z,51.40
2019-02-28T09:53:50.950Z,51.00
2019-02-28T09:56:21.526Z,50.40
2019-02-28T09:58:52.462Z,49.70
2019-02-28T10:01:24.454Z,49.30
2019-02-28T10:03:56.209Z,48.70
2019-02-28T10:06:26.906Z,48.30
2019-02-28T10:08:57.751Z,48.20
2019-02-28T10:11:31.776Z,47.80
2019-02-28T10:14:00.861Z,47.10
2019-02-28T10:16:31.434Z,47.10
2019-02-28T10:19:02.893Z,46.20
2019-02-28T10:21:36.477Z,44.50
2019-02-28T10:24:05.569Z,44.80
2019-02-28T10:26:36.061Z,44.00
2019-02-28T10:29:07.441Z,43.20
2019-02-28T10:31:38.686Z,41.30
2019-02-28T10:34:10.496Z,41.20
2019-02-28T10:36:41.052Z,39.50
2019-02-28T10:39:12.577Z,40.50
2019-02-28T10:41:43.066Z,39.30
2019-02-28T10:44:13.612Z,39.10
2019-02-28T10:46:44.064Z,39.00
2019-02-28T10:49:16.815Z,38.50
2019-02-28T10:51:49.681Z,38.20
2019-02-28T10:54:19.978Z,38.70
2019-02-28T10:56:50.471Z,37.80
2019-02-28T10:59:21.371Z,37.20
2019-02-28T11:01:53.221Z,36.70
2019-02-28T11:04:23.996Z,36.20
2019-02-28T11:06:54.509Z,35.60
2019-02-28T11:09:25.493Z,34.90
2019-02-28T11:11:56.474Z,33.30
2019-02-28T11:14:26.949Z,33.30
2019-02-28T11:16:59.426Z,30.90
2019-02-28T11:19:29.982Z,30.00
2019-02-28T11:22:01.567Z,30.20
2019-02-28T11:24:32.808Z,29.20
2019-02-28T11:27:04.741Z,28.10
2019-02-28T11:29:36.304Z,28.50
2019-02-28T11:32:07.135Z,28.90
2019-02-28T11:34:37.615Z,29.10
2019-02-28T11:37:08.897Z,29.20
2019-02-28T11:39:40.315Z,30.30
2019-02-28T11:42:10.757Z,29.50
2019-02-28T11:44:43.500Z,29.70
2019-02-28T11:47:13.526Z,29.40
2019-02-28T11:49:44.103Z,28.90
2019-02-28T11:52:15.995Z,28.70
2019-02-28T11:54:46.669Z,28.10
2019-02-28T11:57:17.191Z,27.90
2019-02-28T11:59:47.662Z,28.20
2019-02-28T12:02:20.128Z,28.10
2019-02-28T12:04:50.418Z,28.00
2019-02-28T12:07:20.900Z,27.30
2019-02-28T12:09:54.486Z,26.50
2019-02-28T12:12:23.616Z,26.30
2019-02-28T12:14:54.240Z,27.00
2019-02-28T12:17:25.526Z,26.50
2019-02-28T12:19:57.106Z,26.20
2019-02-28T12:22:27.678Z,25.90
2019-02-28T12:24:58.142Z,27.00
2019-02-28T12:27:28.616Z,26.30
2019-02-28T12:29:59.353Z,25.50
2019-02-28T12:32:30.085Z,25.40
2019-02-28T12:35:01.734Z,25.20
2019-02-28T12:37:34.400Z,24.80
2019-02-28T12:40:07.446Z,24.90
2019-02-28T12:42:38.285Z,25.50
2019-02-28T12:45:14.922Z,24.80
2019-02-28T12:47:45.940Z,24.20
2019-02-28T12:50:16.514Z,24.00
2019-02-28T12:52:49.946Z,23.90
2019-02-28T12:55:19.621Z,23.70
2019-02-28T12:57:51.641Z,23.80
2019-02-28T13:00:31.476Z,23.80
2019-02-28T13:03:01.969Z,23.90
2019-02-28T13:05:32.836Z,23.90
2019-02-28T13:08:05.719Z,23.00
2019-02-28T13:10:35.725Z,23.00
2019-02-28T13:13:07.704Z,22.60
2019-02-28T13:15:38.510Z,22.40
2019-02-28T13:18:09.545Z,22.00
2019-02-28T13:20:40.792Z,22.10
2019-02-28T13:23:11.251Z,21.80
2019-02-28T13:25:41.838Z,22.10
2019-02-28T13:28:12.313Z,22.20
2019-02-28T13:30:49.087Z,23.00
2019-02-28T13:33:16.081Z,22.50
2019-02-28T13:35:47.600Z,22.10
2019-02-28T13:38:19.739Z,22.10
2019-02-28T13:40:50.535Z,22.00
2019-02-28T13:43:22.778Z,22.30
2019-02-28T13:45:55.807Z,22.20
2019-02-28T13:48:29.965Z,22.10
2019-02-28T13:50:59.315Z,22.20
2019-02-28T13:53:31.749Z,22.70
2019-02-28T13:56:04.846Z,22.80
2019-02-28T13:58:34.646Z,22.70
2019-02-28T14:01:05.710Z,23.60
2019-02-28T14:03:36.190Z,23.50
2019-02-28T14:06:06.860Z,23.20
2019-02-28T14:08:37.313Z,23.40
2019-02-28T14:11:10.265Z,23.60
2019-02-28T14:13:41.638Z,24.20
2019-02-28T14:16:12.506Z,24.90
2019-02-28T14:18:45.509Z,25.80
2019-02-28T14:21:16.195Z,26.80
2019-02-28T14:23:46.740Z,27.90
2019-02-28T14:26:18.314Z,28.60
2019-02-28T14:28:48.776Z,29.50
2019-02-28T14:31:19.258Z,30.30
2019-02-28T14:33:51.431Z,30.60
2019-02-28T14:36:22.226Z,31.20
2019-02-28T14:38:53.454Z,31.60
2019-02-28T14:41:24.629Z,31.80
2019-02-28T14:43:56.945Z,32.30
2019-02-28T14:46:27.512Z,32.70
2019-02-28T14:48:57.968Z,32.10
2019-02-28T14:51:29.339Z,32.40
2019-02-28T14:53:59.931Z,32.80
2019-02-28T14:56:30.514Z,32.60
2019-02-28T14:59:00.965Z,32.70
2019-02-28T15:01:31.544Z,32.90
2019-02-28T15:04:02.736Z,33.20
2019-02-28T15:06:33.490Z,33.50
2019-02-28T15:09:05.792Z,33.80
2019-02-28T15:11:38.168Z,33.10
2019-02-28T15:14:09.869Z,33.90
2019-02-28T15:16:40.366Z,33.60
2019-02-28T15:19:10.870Z,33.60
2019-02-28T15:21:42.764Z,32.40
2019-02-28T15:24:13.777Z,31.70
2019-02-28T15:26:44.274Z,30.50
2019-02-28T15:29:14.768Z,30.00
2019-02-28T15:31:45.368Z,30.50
2019-02-28T15:34:16.174Z,30.40
2019-02-28T15:36:46.649Z,30.70
2019-02-28T15:39:18.208Z,30.70
2019-02-28T15:41:48.997Z,30.80
2019-02-28T15:44:19.471Z,31.30
2019-02-28T15:46:49.935Z,31.50
2019-02-28T15:49:20.566Z,31.60
2019-02-28T15:51:51.537Z,31.90
2019-02-28T15:54:25.363Z,32.20
2019-02-28T15:56:55.392Z,32.40
2019-02-28T15:59:26.973Z,32.60
2019-02-28T16:01:57.521Z,32.70
2019-02-28T16:04:28.022Z,33.00
2019-02-28T16:06:58.567Z,33.00
2019-02-28T16:09:29.035Z,33.40
2019-02-28T16:11:59.764Z,34.50
2019-02-28T16:14:31.539Z,34.20
2019-02-28T16:17:03.540Z,34.50
2019-02-28T16:19:34.389Z,34.80
2019-02-28T16:22:05.164Z,35.10
2019-02-28T16:24:36.670Z,36.00
2019-02-28T16:27:07.905Z,35.50
2019-02-28T16:29:38.401Z,35.80
2019-02-28T16:32:08.930Z,36.30
2019-02-28T16:34:42.422Z,36.70
2019-02-28T16:37:11.598Z,36.80
2019-02-28T16:39:42.097Z,37.40
2019-02-28T16:42:12.921Z,37.60
2019-02-28T16:44:43.452Z,38.20
2019-02-28T16:47:14.054Z,38.90
2019-02-28T16:49:45.213Z,39.60
2019-02-28T16:52:16.006Z,40.00
2019-02-28T16:54:46.473Z,40.40
2019-02-28T16:57:17.074Z,40.90
2019-02-28T16:59:47.672Z,41.30
2019-02-28T17:02:18.382Z,42.40
2019-02-28T17:04:51.892Z,42.30
2019-02-28T17:07:21.491Z,42.60
2019-02-28T17:09:52.199Z,43.00
2019-02-28T17:12:32.722Z,43.30
2019-02-28T17:15:05.517Z,43.60
2019-02-28T17:17:58.630Z,44.10
2019-02-28T17:20:29.332Z,44.40
2019-02-28T17:23:01.447Z,45.00
2019-02-28T17:25:32.158Z,45.30
2019-02-28T17:28:16.574Z,45.60
2019-02-28T17:31:11.503Z,45.90
2019-02-28T17:33:43.285Z,46.20
2019-02-28T17:36:13.594Z,46.70
2019-02-28T17:38:44.124Z,46.90
2019-02-28T17:41:14.605Z,47.30
2019-02-28T17:44:05.692Z,47.50
2019-02-28T17:46:37.308Z,47.80
2019-02-28T17:49:41.061Z,47.90
2019-02-28T17:52:26.029Z,48.30
2019-02-28T17:55:32.543Z,48.40
2019-02-28T17:58:11.997Z,48.60
2019-02-28T18:01:31.809Z,48.90
2019-02-28T18:04:56.260Z,49.00
2019-02-28T18:07:57.829Z,49.30
2019-02-28T18:10:59.161Z,49.50
2019-02-28T18:13:55.250Z,49.60
2019-02-28T18:17:02.204Z,49.80
2019-02-28T18:20:18.098Z,49.90
2019-02-28T18:23:28.947Z,50.00
2019-02-28T18:26:39.262Z,50.10
2019-02-28T18:29:57.054Z,50.20
2019-02-28T18:32:29.750Z,50.30
2019-02-28T18:35:00.100Z,50.60
2019-02-28T18:37:30.673Z,50.70
2019-02-28T18:40:01.569Z,50.90
2019-02-28T18:42:32.377Z,50.90
2019-02-28T18:45:02.911Z,51.10
2019-02-28T18:47:35.918Z,51.30
2019-02-28T18:50:07.536Z,51.20
2019-02-28T18:52:38.232Z,51.30
2019-02-28T18:55:09.848Z,51.50
2019-02-28T18:57:40.456Z,51.70
2019-02-28T19:00:13.580Z,52.30
2019-02-28T19:02:44.253Z,53.30
2019-02-28T19:05:16.841Z,54.40
2019-02-28T19:07:47.426Z,55.50
2019-02-28T19:10:18.770Z,56.40
2019-02-28T19:12:50.570Z,57.30
2019-02-28T19:15:22.745Z,57.90
2019-02-28T19:17:53.561Z,58.80
2019-02-28T19:20:27.397Z,59.40
2019-02-28T19:22:58.237Z,59.90
2019-02-28T19:25:29.122Z,60.50
2019-02-28T19:27:59.742Z,60.90
2019-02-28T19:30:30.357Z,61.20
2019-02-28T19:33:01.313Z,61.40
2019-02-28T19:35:32.214Z,61.80
2019-02-28T19:38:04.058Z,62.10
2019-02-28T19:40:35.786Z,62.30
2019-02-28T19:43:06.436Z,62.40
2019-02-28T19:45:37.962Z,62.40
2019-02-28T19:48:22.626Z,62.70
2019-02-28T19:51:07.916Z,62.80
2019-02-28T19:53:43.281Z,62.90
2019-02-28T19:56:13.910Z,62.90
2019-02-28T19:58:44.509Z,63.00
2019-02-28T20:01:19.116Z,63.00
2019-02-28T20:03:47.771Z,63.00
2019-02-28T20:06:18.279Z,63.20
2019-02-28T20:08:49.166Z,63.10
2019-02-28T20:11:19.823Z,63.30
2019-02-28T20:13:51.095Z,63.30
2019-02-28T20:16:21.626Z,63.50
2019-02-28T20:18:52.204Z,63.60
2019-02-28T20:21:23.194Z,63.60
2019-02-28T20:23:53.914Z,64.10
2019-02-28T20:26:25.664Z,63.50
2019-02-28T20:28:56.209Z,63.50
2019-02-28T20:31:27.115Z,63.50
2019-02-28T20:33:57.912Z,63.10
2019-02-28T20:36:28.594Z,63.00
2019-02-28T20:39:01.220Z,62.80
2019-02-28T20:41:33.401Z,62.70
2019-02-28T20:44:03.885Z,62.60
2019-02-28T20:46:34.437Z,62.40
2019-02-28T20:49:05.011Z,62.50
2019-02-28T20:51:35.831Z,62.60
2019-02-28T20:54:06.297Z,62.40
2019-02-28T20:56:36.840Z,62.50
2019-02-28T20:59:07.660Z,63.00
2019-02-28T21:01:38.203Z,62.10
2019-02-28T21:04:09.027Z,62.00
2019-02-28T21:06:39.611Z,61.60
2019-02-28T21:09:12.590Z,61.20
2019-02-28T21:11:43.250Z,60.50
2019-02-28T21:14:14.066Z,60.50
2019-02-28T21:16:44.618Z,60.40
2019-02-28T21:19:15.073Z,60.00
2019-02-28T21:21:45.520Z,59.40
2019-02-28T21:24:16.170Z,59.40
2019-02-28T21:26:48.187Z,59.60
2019-02-28T21:29:18.716Z,59.30
2019-02-28T21:31:50.355Z,58.80
2019-02-28T21:34:20.947Z,58.40
2019-02-28T21:36:51.581Z,58.20
2019-02-28T21:39:22.110Z,58.20
2019-02-28T21:41:52.770Z,58.30
2019-02-28T21:44:23.870Z,58.30
2019-02-28T21:46:54.393Z,58.50
2019-02-28T21:49:25.149Z,58.10
2019-02-28T21:51:55.600Z,58.10
2019-02-28T21:54:26.358Z,58.10
2019-02-28T21:56:56.916Z,58.00
2019-02-28T21:59:28.372Z,57.60
2019-02-28T22:01:58.993Z,57.70
2019-02-28T22:04:29.592Z,58.60
2019-02-28T22:07:00.139Z,57.70
2019-02-28T22:09:31.137Z,57.80
2019-02-28T22:12:01.913Z,57.60
2019-02-28T22:14:32.528Z,57.60
2019-02-28T22:17:03.354Z,57.50
2019-02-28T22:19:33.913Z,57.60
2019-02-28T22:22:04.453Z,57.40
2019-02-28T22:24:36.297Z,57.50
2019-02-28T22:27:06.797Z,57.60
2019-02-28T22:29:37.249Z,57.50
2019-02-28T22:32:24.141Z,57.60
2019-02-28T22:35:20.744Z,57.30
2019-02-28T22:37:51.290Z,57.40
2019-02-28T22:40:21.823Z,57.10
2019-02-28T22:42:52.342Z,57.00
2019-02-28T22:45:22.824Z,57.30
2019-02-28T22:47:53.325Z,57.20
2019-02-28T22:50:23.809Z,57.40
2019-02-28T22:52:55.028Z,57.00
2019-02-28T22:55:25.508Z,57.10
2019-02-28T22:57:56.199Z,57.10
2019-02-28T23:00:38.093Z,56.80
2019-02-28T23:03:10.280Z,56.30
2019-02-28T23:05:40.780Z,56.10
2019-02-28T23:08:11.997Z,56.30
2019-02-28T23:10:42.845Z,56.10
2019-02-28T23:13:13.326Z,55.90
2019-02-28T23:15:43.779Z,56.00
2019-02-28T23:18:14.265Z,55.70
2019-02-28T23:20:44.907Z,55.90
2019-02-28T23:23:15.450Z,55.90
2019-02-28T23:25:46.993Z,55.90
2019-02-28T23:28:31.998Z,56.10
2019-02-28T23:31:51.451Z,56.40
2019-02-28T23:34:35.978Z,56.10
2019-02-28T23:37:06.462Z,56.10
2019-02-28T23:39:37.900Z,56.30
2019-02-28T23:42:08.412Z,56.30
2019-02-28T23:44:38.900Z,56.40
2019-02-28T23:47:09.837Z,56.60
2019-02-28T23:49:40.317Z,56.50
2019-02-28T23:52:11.103Z,56.80
2019-02-28T23:54:41.897Z,56.70
2019-02-28T23:57:12.378Z,56.70
2019-02-28T23:59:42.824Z,56.90
